createdAt,value
2018-06-18T00:00:24.801Z,19.20
2018-06-18T00:02:52.650Z,19.10
2018-06-18T00:05:20.165Z,19.40
2018-06-18T00:07:47.811Z,19.30
2018-06-18T00:10:15.390Z,19.30
2018-06-18T00:12:42.948Z,19.20
2018-06-18T00:15:10.504Z,19.50
2018-06-18T00:17:38.931Z,18.80
2018-06-18T00:20:06.497Z,19.00
2018-06-18T00:22:34.004Z,18.80
2018-06-18T00:37:20.056Z,19.10
2018-06-18T00:39:47.622Z,19.30
2018-06-18T00:44:43.875Z,18.60
2018-06-18T00:49:38.912Z,19.20
2018-06-18T00:59:28.755Z,18.80
2018-06-18T01:06:51.196Z,19.00
2018-06-18T01:09:18.645Z,18.80
2018-06-18T01:14:13.677Z,19.20
2018-06-18T01:16:41.189Z,18.90
2018-06-18T01:19:08.655Z,19.10
2018-06-18T01:26:34.047Z,18.70
2018-06-18T01:31:29.009Z,18.70
2018-06-18T01:38:52.655Z,18.60
2018-06-18T01:43:47.588Z,18.40
2018-06-18T01:46:15.406Z,18.70
2018-06-18T01:48:42.999Z,18.70
2018-06-18T01:53:38.119Z,18.70
2018-06-18T01:56:05.579Z,18.60
2018-06-18T02:08:22.758Z,18.40
2018-06-18T02:10:50.819Z,18.50
2018-06-18T02:18:13.407Z,18.50
2018-06-18T02:25:35.699Z,18.20
2018-06-18T02:28:08.977Z,18.50
2018-06-18T02:33:15.444Z,18.40
2018-06-18T02:41:45.704Z,18.20
2018-06-18T02:44:14.129Z,17.90
2018-06-18T02:46:41.643Z,18.20
2018-06-18T02:51:37.099Z,18.10
2018-06-18T02:56:45.291Z,18.00
2018-06-18T02:59:12.811Z,18.50
2018-06-18T03:01:40.319Z,18.40
2018-06-18T03:06:35.609Z,18.10
2018-06-18T03:09:05.071Z,18.20
2018-06-18T03:14:00.120Z,18.00
2018-06-18T03:19:01.452Z,18.20
2018-06-18T03:24:07.849Z,17.90
2018-06-18T03:27:38.680Z,18.20
2018-06-18T03:30:06.304Z,18.00
2018-06-18T03:35:01.210Z,17.80
2018-06-18T03:37:28.700Z,17.70
2018-06-18T03:39:56.176Z,17.70
2018-06-18T03:42:23.746Z,17.80
2018-06-18T03:44:58.114Z,18.10
2018-06-18T03:52:23.767Z,18.00
2018-06-18T03:59:47.565Z,18.00
2018-06-18T04:05:58.274Z,17.70
2018-06-18T04:08:25.798Z,18.10
2018-06-18T04:13:26.419Z,18.20
2018-06-18T04:15:53.916Z,18.50
2018-06-18T04:18:21.438Z,17.80
2018-06-18T04:20:49.450Z,18.00
2018-06-18T04:23:17.498Z,18.40
2018-06-18T04:25:45.038Z,18.30
2018-06-18T04:28:12.576Z,18.10
2018-06-18T04:30:40.828Z,18.30
2018-06-18T04:33:08.690Z,18.40
2018-06-18T04:38:03.849Z,18.60
2018-06-18T04:40:31.334Z,18.60
2018-06-18T04:43:04.377Z,18.70
2018-06-18T04:45:37.518Z,18.50
2018-06-18T04:48:10.801Z,18.30
2018-06-18T04:53:11.556Z,19.10
2018-06-18T04:55:39.116Z,19.00
2018-06-18T04:58:06.767Z,19.40
2018-06-18T05:00:59.125Z,19.70
2018-06-18T05:03:27.638Z,19.00
2018-06-18T05:05:55.159Z,19.80
2018-06-18T05:10:50.482Z,19.30
2018-06-18T05:13:18.060Z,20.40
2018-06-18T05:15:45.709Z,19.70
2018-06-18T05:18:13.325Z,20.30
2018-06-18T05:23:13.909Z,19.80
2018-06-18T05:25:41.656Z,19.80
2018-06-18T05:28:09.147Z,20.70
2018-06-18T05:30:36.657Z,20.50
2018-06-18T05:33:04.469Z,20.70
2018-06-18T05:35:32.021Z,20.00
2018-06-18T05:43:01.408Z,21.00
2018-06-18T05:47:56.630Z,20.50
2018-06-18T05:50:24.270Z,21.00
2018-06-18T05:52:51.861Z,21.60
2018-06-18T05:55:19.340Z,20.70
2018-06-18T05:57:46.909Z,21.20
2018-06-18T06:00:15.028Z,21.00
2018-06-18T06:02:42.588Z,21.60
2018-06-18T06:05:10.165Z,21.80
2018-06-18T06:07:37.708Z,21.10
2018-06-18T06:10:06.981Z,22.10
2018-06-18T06:12:35.239Z,22.10
2018-06-18T06:15:02.781Z,22.20
2018-06-18T06:17:30.304Z,21.40
2018-06-18T06:19:57.893Z,22.40
2018-06-18T06:22:26.204Z,21.90
2018-06-18T06:32:15.862Z,22.60
2018-06-18T06:34:46.448Z,22.70
2018-06-18T06:37:13.940Z,22.40
2018-06-18T06:39:41.953Z,22.40
2018-06-18T06:42:13.200Z,22.10
2018-06-18T06:47:12.179Z,21.60
2018-06-18T06:52:07.214Z,22.10
2018-06-18T06:57:02.362Z,22.20
2018-06-18T06:59:29.925Z,22.40
2018-06-18T07:01:58.024Z,23.10
2018-06-18T07:04:25.497Z,23.30
2018-06-18T07:06:53.074Z,23.00
2018-06-18T07:11:48.107Z,24.50
2018-06-18T07:14:15.636Z,24.40
2018-06-18T07:19:11.329Z,24.50
2018-06-18T07:21:38.821Z,25.80
2018-06-18T07:26:33.991Z,25.70
2018-06-18T07:29:01.558Z,25.90
2018-06-18T07:31:29.092Z,26.00
2018-06-18T07:33:56.663Z,25.60
2018-06-18T07:36:24.885Z,26.30
2018-06-18T07:38:52.869Z,26.70
2018-06-18T07:41:20.413Z,26.30
2018-06-18T07:43:47.909Z,26.60
2018-06-18T07:46:16.512Z,27.50
2018-06-18T07:48:44.060Z,27.50
2018-06-18T07:51:11.602Z,26.80
2018-06-18T07:53:39.173Z,27.20
2018-06-18T07:56:06.700Z,27.20
2018-06-18T08:01:01.685Z,28.20
2018-06-18T08:03:29.217Z,28.80
2018-06-18T08:05:56.754Z,29.20
2018-06-18T08:10:51.700Z,30.20
2018-06-18T08:13:19.261Z,29.70
2018-06-18T08:15:46.816Z,30.20
2018-06-18T08:18:14.968Z,30.40
2018-06-18T08:20:42.449Z,29.90
2018-06-18T08:23:09.912Z,30.30
2018-06-18T08:28:04.918Z,29.70
2018-06-18T08:30:32.412Z,29.00
2018-06-18T08:33:00.060Z,29.80
2018-06-18T08:35:27.530Z,29.60
2018-06-18T08:40:22.552Z,29.40
2018-06-18T08:42:50.718Z,29.20
2018-06-18T08:45:18.229Z,29.10
2018-06-18T08:47:45.728Z,29.00
2018-06-18T08:53:50.594Z,28.30
2018-06-18T08:56:23.991Z,26.90
2018-06-18T08:58:57.159Z,27.00
2018-06-18T09:01:27.549Z,26.40
2018-06-18T09:06:28.156Z,25.80
2018-06-18T09:11:24.934Z,26.20
2018-06-18T09:13:52.610Z,25.30
2018-06-18T09:16:21.001Z,25.90
2018-06-18T09:18:48.858Z,25.50
2018-06-18T09:21:16.997Z,25.60
2018-06-18T09:23:44.613Z,25.90
2018-06-18T09:26:12.070Z,25.20
2018-06-18T09:28:39.562Z,26.10
2018-06-18T09:33:34.540Z,25.40
2018-06-18T09:36:02.073Z,26.10
2018-06-18T09:40:57.032Z,25.80
2018-06-18T09:43:24.542Z,25.50
2018-06-18T09:45:52.080Z,25.00
2018-06-18T09:50:52.897Z,24.90
2018-06-18T09:53:26.040Z,24.90
2018-06-18T09:55:59.416Z,24.90
2018-06-18T09:58:32.665Z,24.50
2018-06-18T10:01:13.360Z,24.60
2018-06-18T10:03:40.920Z,25.10
2018-06-18T10:06:08.475Z,24.50
2018-06-18T10:08:36.754Z,24.00
2018-06-18T10:11:04.260Z,23.90
2018-06-18T10:13:31.772Z,24.10
2018-06-18T10:15:59.374Z,24.80
2018-06-18T10:18:27.023Z,24.50
2018-06-18T10:20:54.638Z,24.10
2018-06-18T10:23:22.336Z,24.80
2018-06-18T10:25:49.893Z,24.90
2018-06-18T10:28:17.443Z,24.80
2018-06-18T10:30:44.996Z,24.50
2018-06-18T10:33:18.087Z,24.90
2018-06-18T10:38:25.181Z,24.50
2018-06-18T10:40:58.352Z,24.00
2018-06-18T10:43:31.259Z,24.20
2018-06-18T10:50:54.697Z,24.80
2018-06-18T10:53:22.572Z,24.30
2018-06-18T10:55:50.150Z,24.30
2018-06-18T10:58:17.799Z,24.00
2018-06-18T11:00:49.451Z,24.60
2018-06-18T11:03:17.025Z,23.90
2018-06-18T11:05:50.278Z,24.20
2018-06-18T11:08:17.782Z,23.80
2018-06-18T11:10:45.348Z,24.50
2018-06-18T11:13:12.889Z,23.70
2018-06-18T11:15:40.424Z,23.70
2018-06-18T11:18:13.890Z,23.70
2018-06-18T11:20:47.044Z,24.40
2018-06-18T11:23:20.273Z,24.10
2018-06-18T11:25:53.616Z,24.40
2018-06-18T11:28:21.208Z,24.40
2018-06-18T11:30:48.928Z,23.90
2018-06-18T11:33:16.464Z,24.40
2018-06-18T11:35:44.048Z,24.20
2018-06-18T11:40:39.670Z,24.00
2018-06-18T11:43:07.482Z,24.90
2018-06-18T11:48:12.287Z,24.90
2018-06-18T11:50:40.721Z,24.50
2018-06-18T11:53:08.253Z,25.00
2018-06-18T11:55:36.128Z,24.40
2018-06-18T11:58:04.251Z,24.60
2018-06-18T12:00:37.536Z,24.60
2018-06-18T12:03:11.161Z,24.40
2018-06-18T12:05:44.454Z,24.50
2018-06-18T12:10:46.163Z,24.70
2018-06-18T12:15:41.680Z,24.30
2018-06-18T12:18:09.245Z,24.60
2018-06-18T12:20:36.922Z,24.50
2018-06-18T12:23:04.506Z,24.30
2018-06-18T12:25:32.126Z,24.70
2018-06-18T12:32:54.601Z,24.30
2018-06-18T12:35:22.198Z,24.20
2018-06-18T12:37:49.703Z,24.00
2018-06-18T12:42:44.851Z,24.60
2018-06-18T12:45:20.137Z,24.10
2018-06-18T12:47:53.488Z,24.10
2018-06-18T12:50:26.677Z,24.10
2018-06-18T12:52:59.848Z,24.20
2018-06-18T12:55:33.154Z,24.20
2018-06-18T12:58:00.689Z,24.20
2018-06-18T13:00:28.273Z,24.30
2018-06-18T13:03:01.335Z,24.40
2018-06-18T13:07:56.396Z,24.40
2018-06-18T13:10:23.964Z,24.50
2018-06-18T13:12:51.516Z,24.40
2018-06-18T13:15:19.121Z,24.50
2018-06-18T13:17:46.682Z,24.60
2018-06-18T13:20:14.230Z,24.60
2018-06-18T13:22:41.769Z,24.90
2018-06-18T13:25:09.682Z,24.60
2018-06-18T13:30:10.462Z,24.50
2018-06-18T13:32:37.987Z,24.50
2018-06-18T13:35:05.726Z,24.50
2018-06-18T13:37:38.971Z,24.50
2018-06-18T13:40:12.218Z,24.50
2018-06-18T13:42:45.808Z,24.40
2018-06-18T13:45:18.921Z,24.40
2018-06-18T13:47:52.027Z,24.40
2018-06-18T13:50:19.614Z,24.40
2018-06-18T13:52:47.253Z,24.40
2018-06-18T13:55:14.742Z,24.40
2018-06-18T13:57:43.133Z,24.50
2018-06-18T14:00:10.818Z,24.50
2018-06-18T14:02:40.175Z,24.50
2018-06-18T14:05:07.712Z,24.70
2018-06-18T14:07:35.234Z,24.70
2018-06-18T14:10:02.797Z,24.60
2018-06-18T14:12:30.328Z,24.60
2018-06-18T14:14:57.831Z,24.60
2018-06-18T14:17:25.389Z,24.60
2018-06-18T14:19:58.459Z,24.50
2018-06-18T14:22:26.033Z,24.50
2018-06-18T14:24:53.854Z,24.50
2018-06-18T14:29:55.399Z,24.40
2018-06-18T14:32:28.611Z,24.30
2018-06-18T14:37:34.848Z,24.10
2018-06-18T14:40:10.516Z,24.10
2018-06-18T14:42:38.672Z,24.10
2018-06-18T14:45:06.148Z,24.00
2018-06-18T14:47:33.812Z,23.90
2018-06-18T14:52:29.283Z,23.80
2018-06-18T14:54:57.037Z,23.80
2018-06-18T14:57:24.749Z,23.80
2018-06-18T14:59:58.639Z,23.80
2018-06-18T15:02:26.202Z,23.80
2018-06-18T15:04:53.850Z,23.80
2018-06-18T15:07:21.410Z,23.80
2018-06-18T15:09:48.918Z,23.70
2018-06-18T15:12:18.139Z,23.70
2018-06-18T15:14:50.294Z,23.70
2018-06-18T15:27:02.926Z,23.70
2018-06-18T15:29:30.469Z,23.70
2018-06-18T15:31:57.969Z,23.60
2018-06-18T15:34:25.586Z,23.60
2018-06-18T15:39:20.518Z,23.70
2018-06-18T15:41:48.785Z,23.70
2018-06-18T15:44:16.451Z,23.60
2018-06-18T15:46:44.487Z,23.60
2018-06-18T15:49:12.520Z,23.60
2018-06-18T15:51:40.037Z,23.60
2018-06-18T15:54:07.553Z,23.60
2018-06-18T15:56:35.133Z,23.60
2018-06-18T15:59:02.777Z,23.60
2018-06-18T16:03:57.927Z,23.60
2018-06-18T16:06:25.530Z,23.60
2018-06-18T16:13:49.275Z,23.60
2018-06-18T16:16:16.819Z,23.50
2018-06-18T16:18:44.448Z,23.50
2018-06-18T16:21:12.109Z,23.40
2018-06-18T16:23:39.664Z,23.40
2018-06-18T16:26:07.300Z,23.40
2018-06-18T16:28:35.159Z,23.40
2018-06-18T16:31:02.876Z,23.30
2018-06-18T16:33:30.702Z,23.30
2018-06-18T16:35:58.251Z,23.40
2018-06-18T16:38:25.785Z,23.30
2018-06-18T16:40:53.405Z,23.40
2018-06-18T16:43:20.977Z,23.40
2018-06-18T16:45:49.584Z,23.40
2018-06-18T16:48:17.166Z,23.40
2018-06-18T16:50:44.969Z,23.00
2018-06-18T16:53:12.574Z,23.40
2018-06-18T16:55:40.112Z,23.40
2018-06-18T16:58:07.649Z,23.40
2018-06-18T17:00:35.292Z,23.50
2018-06-18T17:05:32.716Z,23.40
2018-06-18T17:08:00.300Z,23.40
2018-06-18T17:10:28.912Z,23.40
2018-06-18T17:12:56.733Z,23.40
2018-06-18T17:15:24.517Z,23.40
2018-06-18T17:17:52.812Z,23.30
2018-06-18T17:20:20.396Z,23.30
2018-06-18T17:22:48.161Z,23.30
2018-06-18T17:25:15.833Z,23.30
2018-06-18T17:27:43.474Z,23.30
2018-06-18T17:30:11.452Z,23.30
2018-06-18T17:32:39.048Z,23.40
2018-06-18T17:35:06.824Z,23.20
2018-06-18T17:37:34.546Z,23.10
2018-06-18T17:40:02.159Z,23.10
2018-06-18T17:42:29.744Z,23.10
2018-06-18T17:47:24.790Z,23.10
2018-06-18T17:49:52.942Z,23.10
2018-06-18T17:52:20.499Z,23.10
2018-06-18T17:57:15.666Z,23.20
2018-06-18T17:59:44.116Z,23.20
2018-06-18T18:02:11.973Z,23.20
2018-06-18T18:04:40.569Z,23.20
2018-06-18T18:07:08.570Z,23.00
2018-06-18T18:09:36.185Z,23.20
2018-06-18T18:12:03.845Z,23.20
2018-06-18T18:14:31.549Z,23.20
2018-06-18T18:17:01.778Z,23.10
2018-06-18T18:19:29.379Z,23.10
2018-06-18T18:21:59.247Z,23.00
2018-06-18T18:24:27.088Z,22.90
2018-06-18T18:26:54.697Z,23.00
2018-06-18T18:29:22.267Z,23.00
2018-06-18T18:31:49.854Z,23.00
2018-06-18T18:34:17.506Z,22.90
2018-06-18T18:36:45.157Z,22.90
2018-06-18T18:39:12.689Z,22.80
2018-06-18T18:44:09.958Z,22.70
2018-06-18T18:46:37.865Z,22.70
2018-06-18T18:51:32.989Z,22.70
2018-06-18T18:54:00.599Z,22.70
2018-06-18T18:57:17.341Z,22.60
2018-06-18T19:02:14.009Z,22.60
2018-06-18T19:04:53.462Z,22.60
2018-06-18T19:07:25.856Z,22.50
2018-06-18T19:09:59.215Z,22.50
2018-06-18T19:12:26.845Z,22.50
2018-06-18T19:14:54.688Z,22.50
2018-06-18T19:22:19.587Z,22.60
2018-06-18T19:24:47.164Z,22.60
2018-06-18T19:29:43.816Z,22.00
2018-06-18T19:32:11.373Z,22.20
2018-06-18T19:34:39.169Z,22.30
2018-06-18T19:39:38.349Z,22.50
2018-06-18T19:42:06.784Z,22.50
2018-06-18T19:44:34.438Z,22.40
2018-06-18T19:47:38.921Z,22.60
2018-06-18T19:50:10.431Z,22.40
2018-06-18T19:55:08.736Z,22.40
2018-06-18T19:57:36.499Z,22.40
2018-06-18T20:00:06.829Z,22.30
2018-06-18T20:05:07.543Z,22.30
2018-06-18T20:07:36.641Z,22.30
2018-06-18T20:12:33.606Z,22.20
2018-06-18T20:15:01.221Z,22.20
2018-06-18T20:17:29.056Z,22.10
2018-06-18T20:20:03.685Z,22.10
2018-06-18T20:22:32.417Z,22.00
2018-06-18T20:25:32.349Z,21.90
2018-06-18T20:27:59.891Z,21.90
2018-06-18T20:30:34.567Z,21.90
2018-06-18T20:33:05.006Z,21.80
2018-06-18T20:35:35.383Z,21.80
2018-06-18T20:38:03.701Z,21.80
2018-06-18T20:40:32.183Z,21.70
2018-06-18T20:43:00.929Z,21.70
2018-06-18T20:45:32.536Z,21.70
2018-06-18T20:48:01.148Z,21.70
2018-06-18T20:50:28.759Z,21.70
2018-06-18T20:55:34.671Z,21.60
2018-06-18T20:58:05.366Z,21.60
2018-06-18T21:00:36.996Z,21.60
2018-06-18T21:03:06.572Z,21.50
2018-06-18T21:08:06.956Z,21.50
2018-06-18T21:10:40.839Z,21.50
2018-06-18T21:18:09.641Z,21.30
2018-06-18T21:20:42.653Z,21.20
2018-06-18T21:23:12.917Z,21.30
2018-06-18T21:25:43.009Z,21.20
2018-06-18T21:28:12.429Z,21.20
2018-06-18T21:30:43.894Z,21.10
2018-06-18T21:33:12.629Z,21.10
2018-06-18T21:35:41.037Z,21.00
2018-06-18T21:38:09.920Z,21.00
2018-06-18T21:40:37.457Z,21.00
2018-06-18T21:43:07.500Z,20.90
2018-06-18T21:45:36.836Z,20.80
2018-06-18T21:48:04.834Z,20.80
2018-06-18T21:50:32.637Z,20.70
2018-06-18T21:53:01.134Z,20.70
2018-06-18T21:55:29.426Z,20.70
2018-06-18T21:57:57.700Z,20.70
2018-06-18T22:00:31.969Z,20.60
2018-06-18T22:03:00.196Z,20.60
2018-06-18T22:05:28.133Z,20.50
2018-06-18T22:07:55.844Z,20.50
2018-06-18T22:10:23.731Z,20.50
2018-06-18T22:12:51.324Z,20.50
2018-06-18T22:15:19.465Z,20.50
2018-06-18T22:17:47.795Z,20.50
2018-06-18T22:20:16.373Z,20.50
2018-06-18T22:22:43.927Z,20.50
2018-06-18T22:25:11.582Z,20.50
2018-06-18T22:27:40.780Z,20.50
2018-06-18T22:30:10.724Z,20.50
2018-06-18T22:32:38.341Z,20.50
2018-06-18T22:35:06.664Z,20.50
2018-06-18T22:37:34.841Z,20.60
2018-06-18T22:40:03.036Z,20.60
2018-06-18T22:42:31.022Z,20.60
2018-06-18T22:44:58.765Z,20.60
2018-06-18T22:47:26.373Z,20.60
2018-06-18T22:49:56.751Z,20.70
2018-06-18T22:52:24.256Z,20.40
2018-06-18T22:54:51.981Z,20.40
2018-06-18T22:57:19.580Z,20.30
2018-06-18T22:59:47.276Z,20.60
2018-06-18T23:04:44.549Z,20.20
2018-06-18T23:07:12.113Z,20.40
2018-06-18T23:14:34.628Z,20.00
2018-06-18T23:17:02.855Z,20.00
2018-06-18T23:19:31.378Z,20.00
2018-06-18T23:21:58.952Z,19.90
2018-06-18T23:29:22.102Z,19.90
2018-06-18T23:34:17.044Z,19.60
2018-06-18T23:39:12.710Z,19.60
2018-06-18T23:41:44.812Z,19.70
2018-06-18T23:46:40.762Z,20.00
2018-06-18T23:51:35.760Z,19.60
2018-06-18T23:54:03.797Z,19.40
2018-06-18T23:58:59.456Z,19.60
